Airfield :
LOGIN :

Register | Disclaimer

   EN    FR    IT 

 










Legend :    VFR   Marginal VFR   IFR   Intensive IFR   Very Intensive IFR
Visi :
Ceiling :
>= 8 km
>= 3000ft
5 to 8 km
1000 to 3000 ft
1500m to 5 km
500 to 1000 ft
800 to 1500m
200 to 500 ft
< 800m
< 200 ft
Symbols :   Thunderstorms  Fog  Heavy snow  Heavy precipitations  Wind > 20 kt
SIGMETs :     Misc.  Thunderstorms  Icing  Turbulence  Mountain Waves  Volcanic Ashes






- Airport Elevation : 453 ft
- IATA code : SBK


LFRT - St Brieuc Armor

CURRENT METAR :
  • 241230Z AUTO 26017KT 9999 FEW021/// SCT086/// BKN110/// //////TCU 08/05 Q0998

EXPIRED METARs :
  • 241200Z AUTO 26015KT 9999 FEW020/// //////TCU 08/05 Q0998
  • 241130Z AUTO 25013KT 9999 FEW018/// SCT042/// //////TCU 08/05 Q0998
  • 241100Z AUTO 24016KT 9999 BKN017/// BKN023/// BKN031/// //////TCU 07/05 Q0997
  • 241030Z AUTO 24015KT 9999 -RA BKN015/// BKN020/// BKN034/// //////TCU 07/05 Q0997
  • 241000Z AUTO 23014KT 9999 //////TCU 07/05 Q0997
  • 240930Z AUTO 23015KT 9999 FEW018/// BKN039/// BKN050/// ///TCU 05/03 Q0997
  • 240900Z AUTO 22013G24KT 180V240 8000 RA FEW010/// SCT018/// BKN025/// //////CB 05/03 Q0997
  • 240830Z AUTO 21007KT 180V240 9999 -RA BKN028/// BKN045/// BKN074/// //////TCU 04/03 Q0997
  • 240800Z AUTO 22009KT 180V240 9999 FEW023/// SCT044/// BKN062/// //////CB 05/03 Q0997

Expired Forecast.



MET'MAP, your aeronautical weather chart ! - Copyright ORBIFLY December 2007 - Disclaimer

ORBIFLY MET'MAP TEAM :

Programming & Development : Alexandra Zaïnal
Original concept : Baudouin d'Aumeries
Technical & hardware support : Manuel Goepfert
Assistance : Marc-Olivier Méhu




SOURCES & CREDITS :

   NOAA